Time;durP1;ratioP1;P1;durP2;ratioP2;P2;SDS_P1;SDS_P2;PMS_P1;PMS_P2;Temp;Humidity;BMP_temperature;BMP_pressure;BME280_temperature;BME280_humidity;BME280_pressure;Samples;Min_cycle;Max_cycle;Signal;HPM_P1;HPM_P2
2022/03/30 00:00:00;;;;;;;35.40;20.70;;;;;;;5.96;68.06;97708.73;219760;1274;22998;-69
2022/03/30 00:05:12;;;;;;;34.10;20.20;;;;;;;5.86;68.24;97706.45;220242;1273;25264;-68
2022/03/30 00:10:17;;;;;;;34.20;20.80;;;;;;;5.76;68.48;97710.70;219999;1273;22526;-68
2022/03/30 00:15:20;;;;;;;34.10;19.40;;;;;;;5.70;68.75;97707.04;219826;1273;22586;-67
2022/03/30 00:20:35;;;;;;;40.60;24.00;;;;;;;5.63;68.68;97704.34;220303;1273;22691;-68
2022/03/30 00:25:54;;;;;;;37.70;21.60;;;;;;;5.65;69.00;97696.48;220150;1273;25359;-68
2022/03/30 00:30:57;;;;;;;42.70;23.20;;;;;;;5.64;69.22;97691.79;219860;1273;22562;-68
2022/03/30 00:36:03;;;;;;;40.60;22.00;;;;;;;5.64;69.29;97693.92;219888;1273;22689;-68
2022/03/30 00:41:06;;;;;;;44.70;23.30;;;;;;;5.64;69.35;97690.27;220350;1273;22477;-68
2022/03/30 00:46:15;;;;;;;41.50;23.20;;;;;;;5.65;69.64;97688.96;220234;1273;23037;-68
2022/03/30 00:51:28;;;;;;;40.90;23.10;;;;;;;5.65;69.57;97685.94;219893;1273;22557;-69
2022/03/30 00:56:43;;;;;;;45.90;23.70;;;;;;;5.64;69.33;97684.41;220112;1273;22592;-68
2022/03/30 01:01:45;;;;;;;39.90;21.70;;;;;;;5.62;69.27;97681.94;220235;1271;22724;-68
2022/03/30 01:06:48;;;;;;;39.20;22.20;;;;;;;5.58;69.45;97678.64;220364;1273;22587;-67
2022/03/30 01:11:57;;;;;;;35.50;20.60;;;;;;;5.55;69.57;97674.68;220236;1273;25375;-68
2022/03/30 01:16:59;;;;;;;37.60;21.90;;;;;;;5.48;69.65;97668.54;220212;1273;24161;-67
2022/03/30 01:22:02;;;;;;;37.80;23.10;;;;;;;5.40;69.81;97665.60;220524;1273;24286;-67
2022/03/30 01:27:08;;;;;;;44.10;22.50;;;;;;;5.32;70.00;97663.12;220353;1273;24367;-67
2022/03/30 01:32:26;;;;;;;40.10;22.60;;;;;;;5.25;70.15;97655.05;220292;1273;24191;-68
2022/03/30 01:37:41;;;;;;;36.20;22.40;;;;;;;5.18;70.25;97649.36;220151;1273;22574;-68
2022/03/30 01:43:02;;;;;;;40.50;23.90;;;;;;;5.10;70.48;97642.79;220086;1273;22555;-68
2022/03/30 01:48:11;;;;;;;42.80;25.00;;;;;;;5.02;70.59;97637.86;220242;1273;22569;-68
2022/03/30 01:53:14;;;;;;;40.00;21.60;;;;;;;4.95;70.72;97631.34;220353;1273;24843;-69
2022/03/30 01:58:17;;;;;;;38.80;22.50;;;;;;;4.87;70.78;97619.25;220323;1271;24337;-68
2022/03/30 02:03:22;;;;;;;42.20;24.00;;;;;;;4.77;70.96;97617.32;220447;1273;25393;-68
2022/03/30 02:08:29;;;;;;;43.30;23.10;;;;;;;4.68;71.14;97608.97;219911;1273;22547;-68
2022/03/30 02:13:44;;;;;;;52.30;25.60;;;;;;;4.55;71.22;97612.26;220137;1273;22503;-67
2022/03/30 02:19:05;;;;;;;41.90;24.90;;;;;;;4.49;71.70;97609.70;220130;1273;24182;-67
2022/03/30 02:24:07;;;;;;;43.80;23.90;;;;;;;4.47;71.95;97605.09;220459;1273;24361;-69
2022/03/30 02:29:10;;;;;;;40.80;23.50;;;;;;;4.41;71.90;97606.30;220109;1273;22555;-67
2022/03/30 02:34:12;;;;;;;46.70;24.60;;;;;;;4.34;72.01;97605.77;220436;1273;25325;-68
2022/03/30 02:39:15;;;;;;;43.70;24.60;;;;;;;4.29;72.34;97603.47;220308;1273;22600;-68
2022/03/30 02:44:28;;;;;;;40.80;23.90;;;;;;;4.25;72.44;97598.20;220485;1273;22533;-68
2022/03/30 02:49:31;;;;;;;41.30;25.30;;;;;;;4.22;72.51;97596.67;220133;1273;22624;-68
2022/03/30 02:54:33;;;;;;;42.90;24.20;;;;;;;4.15;72.54;97590.95;220212;1274;22487;-67
2022/03/30 02:59:36;;;;;;;39.80;23.90;;;;;;;4.09;72.66;97586.69;220663;1273;22633;-66
2022/03/30 03:04:40;;;;;;;43.60;25.80;;;;;;;4.01;72.73;97591.40;220457;1273;22536;-68
2022/03/30 03:09:43;;;;;;;53.80;28.90;;;;;;;3.93;72.87;97590.38;220015;1273;25322;-69
2022/03/30 03:14:45;;;;;;;46.70;25.90;;;;;;;3.91;73.00;97592.63;220317;1273;25334;-67
2022/03/30 03:19:47;;;;;;;48.70;25.70;;;;;;;3.87;73.08;97586.08;220735;1273;22580;-68
2022/03/30 03:24:49;;;;;;;46.80;25.10;;;;;;;3.81;73.20;97588.17;220294;1273;22586;-68
2022/03/30 03:29:52;;;;;;;40.80;24.70;;;;;;;3.73;73.32;97585.83;220142;1275;22695;-68
2022/03/30 03:34:54;;;;;;;52.10;27.80;;;;;;;3.62;73.41;97582.33;220187;1273;22707;-68
2022/03/30 03:39:57;;;;;;;50.80;28.20;;;;;;;3.55;73.56;97584.21;220152;1273;22657;-69
2022/03/30 03:44:59;;;;;;;55.00;29.50;;;;;;;3.55;73.91;97583.47;220171;1273;24351;-69
2022/03/30 03:50:02;;;;;;;51.60;28.20;;;;;;;3.56;74.03;97587.13;220136;1273;22661;-68
2022/03/30 03:55:06;;;;;;;51.80;28.30;;;;;;;3.56;73.97;97587.29;220421;1273;23873;-68
2022/03/30 04:00:11;;;;;;;46.20;25.80;;;;;;;3.59;74.38;97587.42;220353;1273;24091;-68
2022/03/30 04:05:14;;;;;;;46.20;25.00;;;;;;;3.62;74.29;97585.61;220380;1273;24233;-68
2022/03/30 04:10:16;;;;;;;51.20;28.00;;;;;;;3.62;74.17;97587.58;220304;1273;24365;-69
2022/03/30 04:15:18;;;;;;;52.70;29.10;;;;;;;3.63;74.31;97590.42;220083;1271;23728;-67
2022/03/30 04:20:21;;;;;;;51.50;27.40;;;;;;;3.68;74.34;97582.40;219889;1274;25330;-67
2022/03/30 04:25:23;;;;;;;55.50;30.00;;;;;;;3.73;74.42;97578.84;220184;1273;22595;-67
2022/03/30 04:30:25;;;;;;;57.50;30.00;;;;;;;3.80;74.53;97579.69;220071;1273;22527;-67
2022/03/30 04:35:31;;;;;;;55.30;30.60;;;;;;;3.88;74.49;97577.23;220473;1273;22715;-68
2022/03/30 04:40:33;;;;;;;53.80;29.80;;;;;;;3.96;74.53;97575.39;220248;1273;22609;-68
2022/03/30 04:45:36;;;;;;;56.80;29.50;;;;;;;4.03;74.60;97580.26;220291;1273;22723;-67
2022/03/30 04:50:38;;;;;;;53.70;30.00;;;;;;;4.08;74.41;97579.06;219901;1273;25385;-68
2022/03/30 04:55:56;;;;;;;50.60;29.50;;;;;;;4.16;74.54;97580.09;219910;1273;24312;-68
2022/03/30 05:01:21;;;;;;;59.40;30.80;;;;;;;4.28;74.57;97578.77;220210;1273;22551;-67
2022/03/30 05:06:36;;;;;;;59.10;30.50;;;;;;;4.41;74.70;97576.13;220313;1273;22560;-69
2022/03/30 05:11:58;;;;;;;62.70;33.60;;;;;;;4.56;74.46;97568.70;220162;1273;22590;-67
2022/03/30 05:17:02;;;;;;;66.60;35.00;;;;;;;4.69;74.36;97569.23;220424;1274;22857;-68
2022/03/30 05:22:05;;;;;;;64.00;34.30;;;;;;;4.83;74.41;97570.30;220322;1273;24168;-68
2022/03/30 05:27:09;;;;;;;63.70;34.10;;;;;;;4.96;74.35;97568.95;220077;1273;23978;-68
2022/03/30 05:32:11;;;;;;;84.10;40.20;;;;;;;5.09;73.86;97565.22;220384;1273;25374;-68
2022/03/30 05:37:15;;;;;;;73.10;40.10;;;;;;;5.22;73.78;97567.36;220354;1273;25370;-67
2022/03/30 05:42:18;;;;;;;77.90;42.70;;;;;;;5.38;73.97;97564.37;220287;1273;24231;-70
2022/03/30 05:47:21;;;;;;;78.30;41.30;;;;;;;5.53;73.75;97567.11;220741;1274;25224;-69
2022/03/30 05:52:23;;;;;;;76.50;41.40;;;;;;;5.66;73.49;97570.89;220568;1273;24349;-69
2022/03/30 05:57:25;;;;;;;67.90;37.00;;;;;;;5.81;73.54;97566.70;220441;1274;22735;-71
2022/03/30 06:02:28;;;;;;;57.60;32.70;;;;;;;5.94;73.16;97572.43;220626;1273;22629;-68
2022/03/30 06:07:44;;;;;;;60.90;32.50;;;;;;;6.08;72.90;97568.33;220725;1273;22560;-69
2022/03/30 06:12:55;;;;;;;63.00;34.40;;;;;;;6.22;72.69;97565.68;220665;1273;25957;-69
2022/03/30 06:17:58;;;;;;;70.00;35.10;;;;;;;6.37;72.53;97568.23;220563;1273;24316;-67
2022/03/30 06:23:00;;;;;;;65.20;35.30;;;;;;;6.58;72.82;97574.00;220592;1273;22483;-68
2022/03/30 06:28:03;;;;;;;63.40;34.00;;;;;;;6.77;72.49;97575.07;220496;1273;22924;-67
2022/03/30 06:33:06;;;;;;;67.70;35.70;;;;;;;6.96;72.15;97573.41;220893;1274;22469;-69
2022/03/30 06:38:11;;;;;;;61.40;34.80;;;;;;;7.11;71.68;97575.34;220244;1273;24009;-68
2022/03/30 06:43:15;;;;;;;51.30;28.90;;;;;;;7.24;71.70;97578.23;220509;1273;22685;-68
2022/03/30 06:48:17;;;;;;;52.10;30.00;;;;;;;7.37;71.33;97577.24;220096;1274;24202;-69
2022/03/30 06:53:19;;;;;;;50.80;29.20;;;;;;;7.50;71.09;97576.50;220753;1273;24211;-70
2022/03/30 06:58:22;;;;;;;52.50;30.00;;;;;;;7.65;70.77;97568.86;220167;1275;22488;-71
2022/03/30 07:03:26;;;;;;;49.70;29.10;;;;;;;7.83;70.66;97564.05;221878;1274;25187;-70
2022/03/30 07:13:51;;;;;;;49.80;28.90;;;;;;;8.20;69.57;97566.62;221861;1274;23361;-69
2022/03/30 07:18:54;;;;;;;50.10;29.50;;;;;;;8.40;69.31;97564.29;220568;1273;22587;-69
2022/03/30 07:23:56;;;;;;;41.60;25.60;;;;;;;8.62;68.91;97568.42;219677;1274;460093;-70
2022/03/30 07:29:02;;;;;;;38.60;24.40;;;;;;;8.87;68.23;97563.21;219792;1274;22709;-69
2022/03/30 07:34:04;;;;;;;33.90;21.30;;;;;;;9.12;67.07;97564.44;220341;1274;22681;-71
2022/03/30 07:39:07;;;;;;;36.10;22.10;;;;;;;9.36;66.05;97561.70;221755;1274;22526;-71
2022/03/30 07:44:13;;;;;;;36.60;23.30;;;;;;;9.54;65.23;97563.81;220225;1274;22804;-71
2022/03/30 07:49:16;;;;;;;39.00;24.80;;;;;;;9.68;64.66;97565.61;221926;1274;25441;-71
2022/03/30 07:54:18;;;;;;;43.10;27.10;;;;;;;9.74;63.78;97564.68;221891;1273;23819;-71
2022/03/30 07:59:20;;;;;;;41.60;27.00;;;;;;;9.78;63.47;97566.04;221890;1273;25384;-70
2022/03/30 08:04:23;;;;;;;42.30;26.10;;;;;;;9.87;62.85;97566.83;221612;1274;25490;-69
2022/03/30 08:09:25;;;;;;;39.50;25.50;;;;;;;10.02;62.69;97564.16;220335;1274;24211;-70
2022/03/30 08:14:28;;;;;;;33.00;22.90;;;;;;;10.06;61.21;97560.52;220166;1273;24326;-70
2022/03/30 08:19:30;;;;;;;37.30;24.40;;;;;;;10.08;61.24;97558.98;220597;1274;25277;-69
2022/03/30 08:24:32;;;;;;;38.80;23.40;;;;;;;10.29;61.07;97557.70;220313;1273;23685;-70
2022/03/30 08:29:35;;;;;;;34.10;22.10;;;;;;;10.46;60.53;97559.00;220337;1273;24289;-71
2022/03/30 08:34:38;;;;;;;37.20;24.40;;;;;;;10.61;59.44;97556.02;220510;1274;24231;-70
2022/03/30 08:39:41;;;;;;;51.50;31.50;;;;;;;10.69;59.35;97551.85;220212;1273;24818;-68
2022/03/30 08:44:47;;;;;;;31.00;20.70;;;;;;;10.77;58.66;97551.02;220114;1274;23491;-69
2022/03/30 08:49:56;;;;;;;32.90;20.70;;;;;;;10.89;57.71;97549.73;220162;1274;22571;-69
2022/03/30 08:55:01;;;;;;;33.90;21.60;;;;;;;11.03;57.46;97548.71;220296;1273;22561;-70
2022/03/30 09:00:16;;;;;;;30.70;21.10;;;;;;;11.08;56.62;97545.61;220297;1274;22596;-69
2022/03/30 09:05:22;;;;;;;29.30;18.30;;;;;;;11.12;56.43;97543.33;222162;1273;22578;-69
2022/03/30 09:10:32;;;;;;;32.30;20.00;;;;;;;11.28;55.17;97547.02;220035;1274;22498;-70
2022/03/30 09:15:41;;;;;;;35.00;21.30;;;;;;;11.30;54.61;97544.73;220606;1273;22532;-70
2022/03/30 09:20:57;;;;;;;32.20;20.50;;;;;;;11.40;54.70;97544.87;220451;1273;22559;-69
2022/03/30 09:25:59;;;;;;;32.10;21.70;;;;;;;11.53;54.41;97535.27;220363;1273;22475;-69
2022/03/30 09:31:02;;;;;;;34.20;21.90;;;;;;;11.64;54.28;97535.91;220178;1274;26241;-69
2022/03/30 09:36:29;;;;;;;30.90;20.20;;;;;;;11.78;54.16;97530.31;220228;1274;22488;-69
2022/03/30 09:41:52;;;;;;;33.20;22.40;;;;;;;11.98;53.95;97528.51;220084;1273;24242;-69
2022/03/30 09:46:56;;;;;;;34.50;22.30;;;;;;;12.27;53.87;97519.81;220406;1273;25354;-69
2022/03/30 09:51:59;;;;;;;33.90;23.00;;;;;;;12.51;53.07;97513.98;220833;1273;24295;-70
2022/03/30 09:57:07;;;;;;;34.80;23.20;;;;;;;12.52;52.01;97511.46;219862;1276;24269;-68
2022/03/30 10:02:26;;;;;;;33.60;22.20;;;;;;;12.47;51.70;97505.09;219431;1274;24282;-69
2022/03/30 10:07:35;;;;;;;32.80;22.20;;;;;;;12.71;51.98;97496.05;220431;1273;23275;-69
2022/03/30 10:12:50;;;;;;;37.70;24.60;;;;;;;13.07;51.11;97487.45;220722;1273;23569;-69
2022/03/30 10:18:10;;;;;;;34.70;23.40;;;;;;;13.14;50.34;97478.22;220780;1273;22617;-71
2022/03/30 10:23:30;;;;;;;32.80;22.00;;;;;;;13.49;50.40;97473.23;222727;1273;24295;-69
2022/03/30 10:28:39;;;;;;;26.20;19.00;;;;;;;13.86;49.85;97463.23;220697;1273;22488;-69
2022/03/30 10:33:44;;;;;;;28.70;19.20;;;;;;;14.16;49.26;97460.10;220515;1273;22541;-70
2022/03/30 10:39:07;;;;;;;23.30;17.70;;;;;;;14.53;48.78;97452.84;221013;1274;24245;-69
2022/03/30 10:44:45;;;;;;;51.30;34.70;;;;;;;14.44;46.54;97453.29;220514;1274;24049;-69
2022/03/30 10:49:56;;;;;;;30.70;20.30;;;;;;;14.21;46.94;97444.47;220724;1273;24247;-70
2022/03/30 10:55:19;;;;;;;28.30;18.40;;;;;;;13.98;46.66;97439.71;221926;1273;23821;-70
2022/03/30 11:00:27;;;;;;;27.80;19.20;;;;;;;13.65;46.54;97439.17;222005;1273;24301;-70
2022/03/30 11:05:39;;;;;;;;;;;;;;;;;;;;;
2022/03/30 11:10:48;;;;;;;26.10;18.40;;;;;;;13.08;46.94;97432.50;220507;1273;24263;-69
2022/03/30 11:16:00;;;;;;;27.10;18.90;;;;;;;12.89;46.96;97427.23;220481;1274;22857;-70
2022/03/30 11:21:16;;;;;;;24.00;16.90;;;;;;;12.74;47.19;97420.00;220439;1274;22837;-68
2022/03/30 11:26:48;;;;;;;27.30;16.90;;;;;;;12.89;47.22;97418.23;220248;1274;24230;-69
2022/03/30 11:31:53;;;;;;;25.70;17.30;;;;;;;13.04;46.98;97410.92;220364;1274;25397;-69
2022/03/30 11:37:17;;;;;;;26.50;17.40;;;;;;;13.10;46.68;97411.69;220487;1274;25862;-70
2022/03/30 11:42:26;;;;;;;23.40;15.80;;;;;;;13.16;46.34;97402.31;220203;1274;22532;-69
2022/03/30 11:47:32;;;;;;;20.40;15.40;;;;;;;13.30;45.89;97401.43;220761;1274;22721;-68
2022/03/30 11:52:34;;;;;;;27.80;17.70;;;;;;;13.52;45.80;97397.39;220897;1272;25899;-70
2022/03/30 11:57:41;;;;;;;24.50;16.90;;;;;;;13.75;45.16;97393.88;221693;1274;25255;-70
2022/03/30 12:02:45;;;;;;;23.30;16.70;;;;;;;13.75;44.88;97385.80;221670;1274;22706;-67
2022/03/30 12:08:46;;;;;;;;;;;;;;;;;;;;;
2022/03/30 12:14:27;;;;;;;23.70;15.10;;;;;;;13.89;44.60;97375.72;220410;1274;22582;-68
2022/03/30 12:19:52;;;;;;;26.90;18.40;;;;;;;13.88;44.29;97381.21;220498;1274;22738;-69
2022/03/30 12:24:57;;;;;;;26.90;16.60;;;;;;;13.81;44.32;97377.48;220744;1273;24197;-69
2022/03/30 12:29:59;;;;;;;25.60;15.80;;;;;;;13.64;44.05;97366.11;220408;1273;23684;-69
2022/03/30 12:35:07;;;;;;;23.90;16.30;;;;;;;13.47;44.07;97354.13;220476;1274;24253;-68
2022/03/30 12:40:26;;;;;;;24.70;16.30;;;;;;;13.29;44.27;97354.97;220133;1273;22579;-68
2022/03/30 12:45:54;;;;;;;26.10;16.60;;;;;;;13.11;44.42;97347.40;220427;1273;24306;-68
2022/03/30 12:51:02;;;;;;;23.20;15.50;;;;;;;12.89;44.40;97343.84;220732;1273;23349;-68
2022/03/30 12:56:26;;;;;;;27.00;17.40;;;;;;;12.69;44.69;97343.39;220737;1273;22585;-67
2022/03/30 13:02:15;;;;;;;26.90;17.10;;;;;;;12.61;44.85;97339.29;220514;1274;22486;-68
2022/03/30 13:07:27;;;;;;;23.60;15.40;;;;;;;12.67;44.98;97328.20;220871;1273;24668;-69
2022/03/30 13:12:50;;;;;;;25.30;16.90;;;;;;;12.74;44.71;97322.20;220501;1273;24227;-68
2022/03/30 13:18:01;;;;;;;25.70;18.00;;;;;;;12.73;44.64;97317.70;220744;1273;22497;-69
2022/03/30 13:23:06;;;;;;;26.40;16.50;;;;;;;12.68;44.78;97307.34;220355;1273;22620;-68
2022/03/30 13:28:23;;;;;;;23.50;16.10;;;;;;;12.61;44.70;97296.56;220219;1273;22570;-69
2022/03/30 13:33:29;;;;;;;23.20;16.00;;;;;;;12.53;44.80;97290.70;220542;1273;22568;-68
2022/03/30 13:38:31;;;;;;;23.60;15.40;;;;;;;12.36;44.80;97282.29;220342;1273;22705;-67
2022/03/30 13:43:33;;;;;;;24.80;15.20;;;;;;;12.16;45.13;97269.16;220335;1273;22571;-67
2022/03/30 13:48:36;;;;;;;23.70;16.10;;;;;;;12.05;45.13;97258.54;220254;1273;25210;-68
2022/03/30 13:53:38;;;;;;;23.30;15.60;;;;;;;11.97;45.32;97249.91;220109;1274;24351;-68
2022/03/30 13:58:41;;;;;;;25.70;15.50;;;;;;;11.84;45.35;97248.86;220409;1273;24227;-69
2022/03/30 14:03:43;;;;;;;25.20;14.80;;;;;;;11.69;45.23;97243.57;220357;1273;23849;-67
2022/03/30 14:08:46;;;;;;;20.70;13.10;;;;;;;11.55;45.15;97239.34;220351;1273;24200;-67
2022/03/30 14:13:49;;;;;;;18.20;11.90;;;;;;;11.50;45.33;97236.50;220255;1273;22569;-66
2022/03/30 14:18:52;;;;;;;18.10;11.50;;;;;;;11.50;45.54;97233.27;219802;1273;22922;-66
2022/03/30 14:23:54;;;;;;;14.00;10.20;;;;;;;11.55;45.50;97230.53;219874;1273;22528;-69
2022/03/30 14:28:56;;;;;;;10.50;7.70;;;;;;;11.59;45.37;97227.60;220170;1273;22486;-67
2022/03/30 14:33:58;;;;;;;10.80;7.40;;;;;;;11.56;45.20;97228.03;220021;1273;25380;-69
2022/03/30 14:39:01;;;;;;;15.60;10.00;;;;;;;11.49;44.99;97228.17;220866;1273;24041;-67
2022/03/30 14:44:03;;;;;;;16.70;10.90;;;;;;;11.39;45.61;97221.55;219900;1274;23130;-67
2022/03/30 14:49:08;;;;;;;17.50;11.20;;;;;;;11.28;45.89;97214.22;219998;1273;25306;-67
2022/03/30 14:54:11;;;;;;;15.30;10.40;;;;;;;11.18;46.14;97212.11;219987;1273;22581;-68
2022/03/30 14:59:13;;;;;;;18.10;12.20;;;;;;;11.07;46.56;97212.89;220135;1273;25412;-67
2022/03/30 15:04:19;;;;;;;18.60;12.30;;;;;;;10.94;47.22;97209.30;220139;1273;22554;-69
2022/03/30 15:09:22;;;;;;;21.80;14.10;;;;;;;10.81;47.56;97212.14;219581;1276;23732;-68
2022/03/30 15:14:27;;;;;;;22.10;13.40;;;;;;;10.70;48.04;97212.71;219832;1275;22680;-68
2022/03/30 15:19:37;;;;;;;20.70;14.30;;;;;;;10.62;48.68;97212.59;219728;1274;23391;-69
2022/03/30 15:25:00;;;;;;;19.50;12.50;;;;;;;10.54;49.36;97212.39;219557;1274;22840;-68
2022/03/30 15:30:05;;;;;;;24.80;15.00;;;;;;;10.44;49.84;97212.23;219902;1274;22708;-68
2022/03/30 15:35:08;;;;;;;23.60;14.50;;;;;;;10.31;50.30;97208.99;219937;1274;22577;-68
2022/03/30 15:40:16;;;;;;;23.80;14.20;;;;;;;10.22;51.60;97206.16;220125;1274;22743;-69
2022/03/30 15:45:29;;;;;;;23.60;15.10;;;;;;;10.14;52.84;97198.63;220386;1276;25330;-69
2022/03/30 15:50:31;;;;;;;23.80;15.10;;;;;;;9.98;53.49;97195.25;220205;1274;22559;-68
2022/03/30 15:55:46;;;;;;;25.20;15.40;;;;;;;9.77;54.55;97192.75;219661;1275;25549;-68
2022/03/30 16:00:49;;;;;;;26.70;17.90;;;;;;;9.59;55.14;97187.36;220030;1274;25302;-69
2022/03/30 16:05:51;;;;;;;31.50;18.60;;;;;;;9.46;55.97;97188.00;220003;1274;25082;-68
2022/03/30 16:16:16;;;;;;;27.30;16.60;;;;;;;9.16;56.78;97183.79;220199;1273;22657;-68
2022/03/30 16:21:30;;;;;;;29.80;18.90;;;;;;;9.01;57.37;97180.27;220109;1273;22896;-68
2022/03/30 16:26:35;;;;;;;32.70;19.00;;;;;;;8.81;57.99;97174.93;220115;1273;26003;-68
2022/03/30 16:31:53;;;;;;;30.20;17.20;;;;;;;8.60;58.69;97171.33;220055;1273;25450;-69
2022/03/30 16:37:15;;;;;;;38.90;20.00;;;;;;;8.31;59.90;97172.48;219543;1274;22471;-68
2022/03/30 16:42:20;;;;;;;37.10;20.50;;;;;;;8.06;60.92;97179.72;219957;1274;22567;-68
2022/03/30 16:47:22;;;;;;;35.40;20.20;;;;;;;7.82;61.96;97170.84;219863;1273;22526;-67
2022/03/30 16:52:28;;;;;;;31.40;18.90;;;;;;;7.65;63.18;97166.93;219861;1273;22662;-68
2022/03/30 16:57:30;;;;;;;33.70;19.90;;;;;;;7.48;64.46;97167.21;219967;1273;25375;-69
2022/03/30 17:02:34;;;;;;;35.50;20.90;;;;;;;7.34;65.21;97164.23;220194;1273;22827;-69
2022/03/30 17:09:57;;;;;;;36.40;22.30;;;;;;;7.22;66.05;97163.64;219649;1274;22551;-69
2022/03/30 17:13:19;;;;;;;43.80;23.00;;;;;;;7.12;66.68;97154.45;219942;1273;22710;-67
2022/03/30 17:18:22;;;;;;;37.40;21.30;;;;;;;7.08;67.21;97146.30;219867;1273;23179;-67
2022/03/30 17:23:25;;;;;;;42.50;24.70;;;;;;;7.02;67.70;97142.30;219895;1273;22479;-68
2022/03/30 17:28:31;;;;;;;48.20;26.90;;;;;;;6.96;67.72;97135.24;220248;1273;24358;-68
2022/03/30 17:33:33;;;;;;;46.70;26.30;;;;;;;6.91;68.26;97131.33;219698;1274;22541;-68
2022/03/30 17:38:41;;;;;;;44.30;25.30;;;;;;;6.84;68.76;97116.76;220019;1273;22588;-68
2022/03/30 17:43:46;;;;;;;44.10;27.40;;;;;;;6.78;69.44;97112.69;219947;1273;23735;-68
2022/03/30 17:54:34;;;;;;;38.80;24.60;;;;;;;6.69;69.93;97105.83;219955;1273;22483;-68
2022/03/30 17:59:48;;;;;;;40.50;24.90;;;;;;;6.64;70.10;97102.64;219966;1275;22588;-68
2022/03/30 18:04:51;;;;;;;50.10;30.90;;;;;;;6.59;70.78;97098.50;220029;1274;24372;-68
2022/03/30 18:09:55;;;;;;;48.90;26.70;;;;;;;6.57;71.38;97094.98;220092;1273;22525;-68
2022/03/30 18:14:59;;;;;;;46.20;29.10;;;;;;;6.56;71.57;97093.31;219633;1274;24303;-69
2022/03/30 18:20:04;;;;;;;45.10;27.10;;;;;;;6.57;71.93;97085.74;219552;1275;24269;-69
2022/03/30 18:25:27;;;;;;;50.40;29.30;;;;;;;6.55;72.15;97081.85;220038;1273;24275;-68
2022/03/30 18:30:50;;;;;;;49.00;28.00;;;;;;;6.52;72.62;97075.52;220281;1273;24200;-67
2022/03/30 18:35:53;;;;;;;47.40;29.30;;;;;;;6.49;72.79;97072.30;220226;1273;22577;-68
2022/03/30 18:40:55;;;;;;;50.10;30.20;;;;;;;6.44;72.77;97072.41;220143;1273;24136;-68
2022/03/30 18:45:59;;;;;;;47.60;30.50;;;;;;;6.40;73.44;97070.70;219947;1273;24180;-71
2022/03/30 18:51:04;;;;;;;54.70;31.40;;;;;;;6.38;73.76;97068.40;220580;1274;24394;-71
2022/03/30 18:56:07;;;;;;;51.10;31.40;;;;;;;6.38;74.03;97070.66;220862;1273;23208;-71
2022/03/30 19:01:11;;;;;;;55.00;32.40;;;;;;;6.35;74.26;97071.73;221017;1273;22815;-71
2022/03/30 19:06:15;;;;;;;51.30;31.00;;;;;;;6.33;74.67;97071.45;221073;1273;22742;-72
2022/03/30 19:11:23;;;;;;;53.50;32.50;;;;;;;6.33;74.63;97064.21;220825;1273;22557;-71
2022/03/30 19:16:25;;;;;;;58.80;34.90;;;;;;;6.32;74.92;97063.27;220739;1274;22502;-70
2022/03/30 19:21:28;;;;;;;63.90;34.80;;;;;;;6.31;75.36;97066.17;220891;1274;22482;-70
2022/03/30 19:26:31;;;;;;;64.20;38.00;;;;;;;6.31;75.93;97066.92;220514;1274;328693;-71
2022/03/30 19:31:33;;;;;;;57.80;36.60;;;;;;;6.36;76.04;97066.33;221015;1273;25408;-70
2022/03/30 19:36:45;;;;;;;52.90;33.80;;;;;;;6.37;76.30;97067.55;220953;1273;22652;-70
2022/03/30 19:41:48;;;;;;;59.70;36.80;;;;;;;6.32;76.79;97065.36;220613;1274;22570;-70
2022/03/30 19:46:50;;;;;;;58.20;35.70;;;;;;;6.28;77.02;97065.61;220515;1273;23814;-71
2022/03/30 19:51:55;;;;;;;64.90;38.60;;;;;;;6.26;77.34;97071.73;220603;1273;25414;-71
2022/03/30 19:57:01;;;;;;;60.40;37.00;;;;;;;6.27;77.28;97074.31;221101;1273;23235;-71
2022/03/30 20:02:03;;;;;;;59.80;36.60;;;;;;;6.30;77.57;97067.77;220822;1273;22468;-71
2022/03/30 20:07:05;;;;;;;59.30;32.30;;;;;;;6.25;77.64;97070.57;220786;1273;22529;-71
2022/03/30 20:12:13;;;;;;;70.20;39.30;;;;;;;6.21;77.91;97068.33;220125;1273;22453;-71
2022/03/30 20:17:37;;;;;;;55.40;34.30;;;;;;;6.17;78.12;97060.19;221020;1273;22596;-71
2022/03/30 20:22:39;;;;;;;71.00;38.00;;;;;;;6.09;78.03;97051.75;221055;1273;24298;-71
2022/03/30 20:27:42;;;;;;;56.20;32.10;;;;;;;6.02;78.58;97054.99;220824;1274;23449;-71
2022/03/30 20:32:53;;;;;;;51.70;30.70;;;;;;;5.95;78.63;97067.48;220869;1273;24048;-71
2022/03/30 20:37:55;;;;;;;50.20;32.40;;;;;;;5.89;78.57;97073.59;220577;1274;22557;-71
2022/03/30 20:42:58;;;;;;;51.30;31.70;;;;;;;5.80;78.76;97070.32;220681;1273;22583;-72
2022/03/30 20:48:00;;;;;;;42.20;25.90;;;;;;;5.68;79.21;97073.80;220929;1273;22534;-73
2022/03/30 20:53:03;;;;;;;37.90;24.00;;;;;;;5.57;79.52;97073.98;220948;1274;22603;-74
2022/03/30 20:58:06;;;;;;;41.70;25.00;;;;;;;5.48;79.95;97059.45;220960;1273;22705;-72
2022/03/30 21:03:21;;;;;;;37.50;23.80;;;;;;;5.40;80.29;97042.99;220852;1275;22530;-73
2022/03/30 21:08:24;;;;;;;39.90;23.00;;;;;;;5.34;80.56;97037.36;220867;1273;25369;-72
2022/03/30 21:13:27;;;;;;;36.80;23.40;;;;;;;5.25;80.95;97043.59;220936;1274;22921;-75
2022/03/30 21:18:29;;;;;;;34.70;22.40;;;;;;;5.18;81.10;97059.93;220911;1273;22841;-73
2022/03/30 21:24:13;;;;;;;31.30;20.00;;;;;;;5.13;81.41;97067.23;220870;1273;23376;-74
2022/03/30 21:30:09;;;;;;;32.50;20.00;;;;;;;5.01;81.96;97051.64;221214;1273;23957;-74
2022/03/30 21:35:14;;;;;;;35.30;21.90;;;;;;;4.93;82.53;97040.89;221254;1273;22574;-74
2022/03/30 21:40:19;;;;;;;30.90;20.00;;;;;;;4.84;82.83;97060.11;221011;1273;24174;-75
2022/03/30 21:45:23;;;;;;;35.90;22.10;;;;;;;4.77;82.71;97060.55;221115;1273;23844;-75
2022/03/30 21:50:25;;;;;;;28.50;18.30;;;;;;;4.73;82.73;97052.13;221224;1273;24194;-76
2022/03/30 21:55:27;;;;;;;29.10;19.70;;;;;;;4.68;82.72;97058.00;221069;1274;24196;-75
2022/03/30 22:06:37;;;;;;;32.60;19.60;;;;;;;4.47;83.12;97058.71;221039;1274;22592;-75
2022/03/30 22:12:46;;;;;;;32.50;20.50;;;;;;;4.42;83.24;97042.63;221302;1273;22590;-76
2022/03/30 22:18:02;;;;;;;40.10;26.00;;;;;;;4.39;83.27;97032.70;221023;1274;22659;-75
2022/03/30 22:23:24;;;;;;;;;;;;;;;;;;;;;
2022/03/30 22:29:05;;;;;;;;;;;;;;;4.33;83.24;97030.73;221056;1273;22675;-75
2022/03/30 22:39:38;;;;;;;20.40;14.00;;;;;;;4.26;83.26;97031.90;221012;1273;22546;-76
2022/03/30 22:44:47;;;;;;;21.20;15.00;;;;;;;4.20;83.24;97033.59;221057;1274;22488;-75
2022/03/30 22:49:50;;;;;;;22.80;13.80;;;;;;;4.16;83.15;97034.17;220913;1273;22546;-75
2022/03/30 22:54:52;;;;;;;17.70;12.70;;;;;;;4.14;83.13;97032.42;221074;1273;22571;-74
2022/03/30 23:00:40;;;;;;;;;;;;;;;;;;;;;
2022/03/30 23:19:06;;;;;;;12.70;9.50;;;;;;;3.81;83.14;97043.80;221104;1273;22466;-76
2022/03/30 23:24:57;;;;;;;;;;;;;;;;;;;;;
2022/03/30 23:30:04;;;;;;;10.40;8.30;;;;;;;3.66;83.34;97050.41;221068;1274;22475;-72
2022/03/30 23:35:19;;;;;;;17.70;11.90;;;;;;;3.61;83.35;97049.99;220692;1274;22607;-72
2022/03/30 23:40:24;;;;;;;13.40;10.00;;;;;;;3.62;83.20;97049.09;221139;1273;24331;-72
2022/03/30 23:45:28;;;;;;;7.20;5.70;;;;;;;3.56;83.06;97045.41;221404;1273;22696;-72
2022/03/30 23:50:36;;;;;;;13.30;8.20;;;;;;;3.45;83.20;97044.75;221310;1273;24295;-72
2022/03/30 23:56:01;;;;;;;11.00;7.80;;;;;;;3.39;83.30;97053.23;221364;1273;24147;-73
